Terminal Aerodrome Forecast
Issued by NWS

Home | Current Version | Previous Version | Text Only | Print | Product List | Glossary On
Versions: 1 2 3 4 5 6 7 8 9
000
FTUS46 KLOX 282300
TAFPMD
TAF
KPMD 282335Z 2900/2924 VRB03KT P6SM SCT250
     FM290300 26006KT P6SM FEW250
     FM291100 VRB03KT P6SM SKC
     FM292100 27012G18KT P6SM SKC=

USA.gov is the U.S. government's official web portal to all federal, state and local government web resources and services.